createdAt,value
2022-11-17T00:01:10.156Z,15.83
2022-11-17T00:06:15.147Z,15.90
2022-11-17T00:11:18.272Z,15.86
2022-11-17T00:16:22.506Z,15.90
2022-11-17T00:21:28.977Z,15.87
2022-11-17T00:26:33.708Z,15.85
2022-11-17T00:31:53.830Z,15.77
2022-11-17T00:36:58.642Z,15.77
2022-11-17T00:42:01.707Z,15.75
2022-11-17T00:47:04.878Z,15.81
2022-11-17T00:52:10.648Z,15.82
2022-11-17T00:57:13.815Z,15.80
2022-11-17T01:02:16.969Z,15.81
2022-11-17T01:07:22.971Z,15.82
2022-11-17T01:12:26.185Z,15.86
2022-11-17T01:17:29.353Z,15.87
2022-11-17T01:22:33.918Z,15.88
2022-11-17T01:27:37.105Z,15.87
2022-11-17T01:32:40.286Z,15.84
2022-11-17T01:37:44.943Z,15.83
2022-11-17T01:42:47.849Z,15.78
2022-11-17T01:47:53.877Z,15.82
2022-11-17T01:53:01.646Z,15.83
2022-11-17T01:58:09.744Z,15.85
2022-11-17T02:03:13.605Z,15.89
2022-11-17T02:08:20.861Z,15.91
2022-11-17T02:13:24.852Z,15.90
2022-11-17T02:18:28.230Z,15.90
2022-11-17T02:24:08.956Z,15.90
2022-11-17T02:29:20.756Z,15.90
2022-11-17T02:34:35.991Z,15.94
2022-11-17T02:39:45.304Z,15.96
2022-11-17T02:44:58.036Z,15.96
2022-11-17T02:50:05.134Z,15.94
2022-11-17T02:55:10.565Z,15.94
2022-11-17T03:00:17.894Z,15.92
2022-11-17T03:05:28.381Z,15.91
2022-11-17T03:10:45.870Z,15.93
2022-11-17T03:15:56.628Z,15.93
2022-11-17T03:21:11.873Z,15.92
2022-11-17T03:26:22.265Z,15.93
2022-11-17T03:31:29.158Z,15.92
2022-11-17T03:36:37.986Z,15.91
2022-11-17T03:41:45.966Z,15.90
2022-11-17T03:46:54.443Z,15.92
2022-11-17T03:51:57.913Z,15.92
2022-11-17T03:57:07.648Z,15.94
2022-11-17T04:02:15.360Z,15.97
2022-11-17T04:07:18.618Z,15.92
2022-11-17T04:12:39.328Z,15.87
2022-11-17T04:17:43.880Z,15.81
2022-11-17T04:23:07.079Z,15.74
2022-11-17T04:28:27.615Z,15.66
2022-11-17T04:33:32.364Z,15.56
2022-11-17T04:38:35.922Z,15.44
2022-11-17T04:43:39.216Z,15.38
2022-11-17T04:48:43.967Z,15.34
2022-11-17T04:53:47.603Z,15.23
2022-11-17T04:58:51.141Z,15.17
2022-11-17T05:03:57.439Z,15.10
2022-11-17T05:09:02.888Z,15.02
2022-11-17T05:14:06.060Z,14.94
2022-11-17T05:19:12.476Z,14.99
2022-11-17T05:24:16.162Z,14.99
2022-11-17T05:29:21.397Z,14.84
2022-11-17T05:34:26.058Z,14.80
2022-11-17T05:39:28.945Z,14.74
2022-11-17T05:44:32.249Z,14.75
2022-11-17T05:49:36.899Z,14.71
2022-11-17T05:54:40.140Z,14.70
2022-11-17T05:59:47.445Z,14.69
2022-11-17T06:04:53.064Z,14.68
2022-11-17T06:09:56.473Z,14.71
2022-11-17T06:14:59.760Z,14.71
2022-11-17T06:20:08.881Z,14.71
2022-11-17T06:25:12.623Z,14.70
2022-11-17T06:30:15.994Z,14.71
2022-11-17T06:35:21.085Z,14.71
2022-11-17T06:40:24.374Z,14.74
2022-11-17T06:45:27.896Z,14.74
2022-11-17T06:50:32.876Z,14.77
2022-11-17T06:55:36.996Z,14.71
2022-11-17T07:00:40.416Z,14.75
2022-11-17T07:05:45.219Z,14.78
2022-11-17T07:10:54.696Z,14.71
2022-11-17T07:16:04.739Z,14.74
2022-11-17T07:21:11.140Z,14.74
2022-11-17T07:26:14.643Z,14.75
2022-11-17T07:31:17.938Z,14.78
2022-11-17T07:36:22.641Z,14.81
2022-11-17T07:41:25.585Z,14.74
2022-11-17T07:46:28.831Z,14.72
2022-11-17T07:51:33.430Z,14.74
2022-11-17T07:56:36.679Z,14.75
2022-11-17T08:01:40.106Z,14.75
2022-11-17T08:06:45.437Z,14.70
2022-11-17T08:11:48.896Z,14.68
2022-11-17T08:16:52.176Z,14.68
2022-11-17T08:21:56.805Z,14.74
2022-11-17T08:27:00.027Z,14.88
2022-11-17T08:32:03.189Z,15.03
2022-11-17T08:37:07.769Z,15.07
2022-11-17T08:42:10.939Z,15.05
2022-11-17T08:47:14.155Z,15.08
2022-11-17T08:52:19.532Z,15.09
2022-11-17T08:57:23.019Z,15.15
2022-11-17T09:02:26.350Z,15.19
2022-11-17T09:07:35.045Z,15.38
2022-11-17T09:12:38.507Z,15.72
2022-11-17T09:17:43.160Z,15.87
2022-11-17T09:22:47.615Z,15.76
2022-11-17T09:27:51.330Z,15.66
2022-11-17T09:32:54.481Z,15.40
2022-11-17T09:38:02.158Z,15.15
2022-11-17T09:43:09.718Z,15.11
2022-11-17T09:48:40.375Z,15.16
2022-11-17T09:53:47.359Z,15.20
2022-11-17T09:58:56.399Z,15.29
2022-11-17T10:04:01.651Z,15.38
2022-11-17T10:09:13.014Z,15.52
2022-11-17T10:14:18.211Z,15.71
2022-11-17T10:19:23.754Z,15.85
2022-11-17T10:24:41.687Z,15.93
2022-11-17T10:29:58.035Z,15.97
2022-11-17T10:35:15.937Z,16.23
2022-11-17T10:40:25.690Z,16.35
2022-11-17T10:45:30.033Z,16.42
2022-11-17T10:50:33.368Z,16.51
2022-11-17T10:55:39.179Z,16.48
2022-11-17T11:00:44.634Z,16.75
2022-11-17T11:05:57.834Z,16.90
2022-11-17T11:11:04.716Z,16.87
2022-11-17T11:16:10.673Z,16.90
2022-11-17T11:21:22.159Z,16.50
2022-11-17T11:26:39.270Z,16.39
2022-11-17T11:31:53.027Z,16.12
2022-11-17T11:37:01.633Z,15.86
2022-11-17T11:42:32.322Z,15.48
2022-11-17T11:47:55.325Z,15.09
2022-11-17T11:53:05.182Z,15.24
2022-11-17T11:58:16.704Z,15.43
2022-11-17T12:03:26.593Z,15.54
2022-11-17T12:08:39.787Z,15.62
2022-11-17T12:13:49.907Z,15.75
2022-11-17T12:18:57.210Z,16.08
2022-11-17T12:24:20.018Z,16.33
2022-11-17T12:29:48.665Z,16.63
2022-11-17T12:35:25.487Z,16.89
2022-11-17T12:40:54.068Z,16.95
2022-11-17T12:46:20.647Z,16.89
2022-11-17T12:51:31.931Z,16.81
2022-11-17T12:56:52.431Z,16.77
2022-11-17T13:02:05.867Z,17.07
2022-11-17T13:07:18.294Z,16.99
2022-11-17T13:12:26.503Z,16.66
2022-11-17T13:17:33.898Z,16.61
2022-11-17T13:22:41.803Z,16.63
2022-11-17T13:27:52.573Z,16.68
2022-11-17T13:33:03.252Z,16.31
2022-11-17T13:38:17.197Z,15.97
2022-11-17T13:43:23.003Z,15.84
2022-11-17T13:48:42.806Z,15.54
2022-11-17T13:53:48.916Z,15.42
2022-11-17T13:58:53.661Z,15.29
2022-11-17T14:04:15.318Z,15.35
2022-11-17T14:09:26.742Z,15.63
2022-11-17T14:14:36.956Z,15.64
2022-11-17T14:19:42.365Z,15.67
2022-11-17T14:24:49.379Z,15.72
2022-11-17T14:29:53.545Z,15.75
2022-11-17T14:34:58.778Z,15.63
2022-11-17T14:40:06.013Z,15.56
2022-11-17T14:45:10.592Z,15.61
2022-11-17T14:50:15.356Z,15.71
2022-11-17T14:55:22.512Z,15.89
2022-11-17T15:00:26.666Z,15.97
2022-11-17T15:05:32.207Z,16.28
2022-11-17T15:10:37.010Z,16.74
2022-11-17T15:15:40.377Z,16.60
2022-11-17T15:20:46.676Z,16.12
2022-11-17T15:26:26.094Z,15.80
2022-11-17T15:31:33.312Z,15.79
2022-11-17T15:36:58.730Z,15.67
2022-11-17T15:42:04.167Z,15.56
2022-11-17T15:47:41.744Z,15.45
2022-11-17T15:53:04.017Z,15.36
2022-11-17T15:58:39.068Z,15.25
2022-11-17T16:03:49.490Z,15.29
2022-11-17T16:08:52.662Z,15.37
2022-11-17T16:13:56.267Z,15.23
2022-11-17T16:19:00.922Z,15.17
2022-11-17T16:24:04.642Z,15.15
2022-11-17T16:29:08.940Z,15.11
2022-11-17T16:34:15.625Z,15.08
2022-11-17T16:39:20.056Z,14.95
2022-11-17T16:44:23.537Z,14.75
2022-11-17T16:49:30.158Z,14.56
2022-11-17T16:54:33.363Z,14.49
2022-11-17T16:59:36.707Z,14.49
2022-11-17T17:04:41.311Z,14.35
2022-11-17T17:09:44.575Z,14.36
2022-11-17T17:14:47.772Z,14.22
2022-11-17T17:19:52.519Z,14.19
2022-11-17T17:24:55.566Z,14.18
2022-11-17T17:29:58.771Z,14.23
2022-11-17T17:35:03.526Z,14.30
2022-11-17T17:40:07.130Z,14.25
2022-11-17T17:45:11.188Z,14.29
2022-11-17T17:50:15.919Z,14.29
2022-11-17T17:55:18.818Z,14.23
2022-11-17T18:00:22.300Z,14.22
2022-11-17T18:05:27.336Z,14.20
2022-11-17T18:10:30.776Z,14.18
2022-11-17T18:15:33.901Z,14.19
2022-11-17T18:20:38.699Z,14.17
2022-11-17T18:25:41.570Z,14.16
2022-11-17T18:30:44.800Z,14.17
2022-11-17T18:35:49.384Z,14.18
2022-11-17T18:40:55.521Z,14.22
2022-11-17T18:46:04.570Z,14.17
2022-11-17T18:51:19.533Z,14.23
2022-11-17T18:56:26.026Z,14.25
2022-11-17T19:01:31.673Z,14.17
2022-11-17T19:06:36.414Z,14.16
2022-11-17T19:11:39.580Z,14.14
2022-11-17T19:16:44.843Z,14.17
2022-11-17T19:21:49.870Z,14.19
2022-11-17T19:26:53.139Z,14.18
2022-11-17T19:31:56.333Z,14.18
2022-11-17T19:37:00.917Z,14.21
2022-11-17T19:42:04.125Z,14.24
2022-11-17T19:47:07.367Z,14.18
2022-11-17T19:52:12.015Z,14.11
2022-11-17T19:57:15.197Z,14.08
2022-11-17T20:02:18.475Z,14.10
2022-11-17T20:07:23.085Z,14.05
2022-11-17T20:12:26.381Z,14.00
2022-11-17T20:17:29.671Z,14.02
2022-11-17T20:22:34.545Z,13.96
2022-11-17T20:27:37.742Z,14.00
2022-11-17T20:32:40.981Z,13.98
2022-11-17T20:37:45.583Z,13.93
2022-11-17T20:42:48.818Z,13.85
2022-11-17T20:47:52.063Z,13.78
2022-11-17T20:52:56.742Z,13.81
2022-11-17T20:57:59.986Z,13.75
2022-11-17T21:03:03.595Z,13.75
2022-11-17T21:08:08.572Z,13.77
2022-11-17T21:13:11.862Z,13.78
2022-11-17T21:18:27.390Z,13.77
2022-11-17T21:23:32.875Z,13.78
2022-11-17T21:28:37.159Z,13.81
2022-11-17T21:33:40.924Z,13.76
2022-11-17T21:38:46.914Z,13.72
2022-11-17T21:43:52.232Z,13.62
2022-11-17T21:48:57.198Z,13.66
2022-11-17T21:54:03.779Z,13.62
2022-11-17T21:59:10.949Z,13.72
2022-11-17T22:04:15.954Z,13.62
2022-11-17T22:09:20.644Z,13.66
2022-11-17T22:14:23.977Z,13.58
2022-11-17T22:19:29.262Z,13.58
2022-11-17T22:24:33.865Z,13.63
2022-11-17T22:29:37.029Z,13.59
2022-11-17T22:34:40.245Z,13.57
2022-11-17T22:39:45.772Z,13.51
2022-11-17T22:44:48.947Z,13.48
2022-11-17T22:49:52.168Z,13.45
2022-11-17T22:54:56.781Z,13.35
2022-11-17T22:59:59.970Z,13.35
2022-11-17T23:05:03.183Z,13.31
2022-11-17T23:10:08.287Z,13.31
2022-11-17T23:15:11.773Z,13.30
2022-11-17T23:20:15.014Z,13.35
2022-11-17T23:25:19.601Z,13.35
2022-11-17T23:30:22.782Z,13.30
2022-11-17T23:35:26.634Z,13.27
2022-11-17T23:40:31.236Z,13.21
2022-11-17T23:45:34.438Z,13.15
2022-11-17T23:50:38.486Z,13.10
2022-11-17T23:55:43.088Z,13.08
